createdAt,value
2023-05-13T00:00:07.827Z,17.92
2023-05-13T00:02:33.968Z,17.91
2023-05-13T00:05:00.101Z,17.92
2023-05-13T00:07:26.217Z,17.90
2023-05-13T00:09:52.336Z,17.91
2023-05-13T00:12:18.440Z,17.90
2023-05-13T00:14:44.542Z,17.90
2023-05-13T00:17:10.646Z,17.88
2023-05-13T00:19:36.751Z,17.90
2023-05-13T00:22:02.835Z,17.88
2023-05-13T00:24:28.940Z,17.88
2023-05-13T00:26:55.047Z,17.88
2023-05-13T00:29:21.138Z,17.88
2023-05-13T00:31:47.380Z,17.88
2023-05-13T00:34:13.526Z,17.87
2023-05-13T00:36:39.621Z,17.87
2023-05-13T00:39:05.733Z,17.87
2023-05-13T00:41:31.854Z,17.87
2023-05-13T00:43:57.956Z,17.86
2023-05-13T00:46:24.198Z,17.87
2023-05-13T00:48:50.306Z,17.86
2023-05-13T00:51:16.414Z,17.86
2023-05-13T00:53:42.522Z,17.85
2023-05-13T00:56:08.616Z,17.87
2023-05-13T00:58:34.709Z,17.85
2023-05-13T01:01:00.936Z,17.85
2023-05-13T01:03:27.128Z,17.84
2023-05-13T01:05:53.259Z,17.85
2023-05-13T01:08:19.370Z,17.85
2023-05-13T01:10:45.472Z,17.85
2023-05-13T01:13:11.575Z,17.84
2023-05-13T01:15:37.755Z,17.83
2023-05-13T01:18:03.964Z,17.84
2023-05-13T01:20:30.083Z,17.84
2023-05-13T01:22:56.203Z,17.84
2023-05-13T01:25:22.304Z,17.83
2023-05-13T01:27:48.400Z,17.82
2023-05-13T01:30:14.514Z,17.83
2023-05-13T01:32:40.686Z,17.82
2023-05-13T01:35:06.826Z,17.82
2023-05-13T01:37:32.960Z,17.83
2023-05-13T01:39:59.065Z,17.82
2023-05-13T01:42:25.157Z,17.82
2023-05-13T01:44:51.274Z,17.81
2023-05-13T01:47:17.370Z,17.81
2023-05-13T01:49:43.458Z,17.81
2023-05-13T01:52:09.616Z,17.81
2023-05-13T01:54:35.713Z,17.81
2023-05-13T01:57:01.812Z,17.81
2023-05-13T01:59:27.930Z,17.81
2023-05-13T02:01:54.255Z,17.80
2023-05-13T02:04:20.458Z,17.80
2023-05-13T02:06:46.728Z,17.80
2023-05-13T02:09:12.818Z,17.79
2023-05-13T02:11:38.940Z,17.79
2023-05-13T02:14:05.714Z,17.79
2023-05-13T02:16:31.942Z,17.78
2023-05-13T02:19:00.774Z,17.78
2023-05-13T02:21:27.221Z,17.78
2023-05-13T02:23:53.406Z,17.78
2023-05-13T02:26:19.756Z,17.78
2023-05-13T02:28:46.389Z,17.77
2023-05-13T02:31:12.621Z,17.77
2023-05-13T02:33:38.892Z,17.77
2023-05-13T02:36:05.207Z,17.77
2023-05-13T02:38:32.119Z,17.77
2023-05-13T02:40:58.923Z,17.76
2023-05-13T02:43:26.884Z,17.76
2023-05-13T02:45:53.233Z,17.76
2023-05-13T02:48:19.550Z,17.75
2023-05-13T02:50:45.724Z,17.76
2023-05-13T02:53:11.839Z,17.74
2023-05-13T02:55:37.953Z,17.74
2023-05-13T02:58:04.053Z,17.74
2023-05-13T03:00:30.152Z,17.74
2023-05-13T03:02:56.368Z,17.73
2023-05-13T03:05:22.614Z,17.73
2023-05-13T03:07:48.715Z,17.73
2023-05-13T03:10:14.887Z,17.72
2023-05-13T03:12:41.015Z,17.73
2023-05-13T03:15:07.126Z,17.72
2023-05-13T03:17:33.235Z,17.73
2023-05-13T03:19:59.412Z,17.72
2023-05-13T03:22:25.529Z,17.72
2023-05-13T03:24:51.634Z,17.71
2023-05-13T03:27:17.756Z,17.71
2023-05-13T03:29:43.841Z,17.72
2023-05-13T03:32:09.923Z,17.71
2023-05-13T03:34:36.107Z,17.72
2023-05-13T03:37:02.230Z,17.70
2023-05-13T03:39:28.374Z,17.70
2023-05-13T03:41:54.499Z,17.70
2023-05-13T03:44:20.599Z,17.71
2023-05-13T03:46:46.742Z,17.70
2023-05-13T03:49:12.872Z,17.70
2023-05-13T03:51:38.971Z,17.70
2023-05-13T03:54:05.093Z,17.70
2023-05-13T03:56:31.243Z,17.70
2023-05-13T03:58:57.342Z,17.69
2023-05-13T04:01:23.438Z,17.69
2023-05-13T04:03:49.550Z,17.68
2023-05-13T04:06:15.639Z,17.67
2023-05-13T04:08:41.722Z,17.68
2023-05-13T04:11:07.843Z,17.67
2023-05-13T04:13:33.956Z,17.67
2023-05-13T04:16:00.068Z,17.68
2023-05-13T04:18:26.229Z,17.66
2023-05-13T04:20:52.364Z,17.67
2023-05-13T04:23:18.464Z,17.67
2023-05-13T04:25:44.636Z,17.67
2023-05-13T04:28:10.733Z,17.66
2023-05-13T04:30:36.836Z,17.66
2023-05-13T04:33:03.027Z,17.65
2023-05-13T04:35:29.149Z,17.65
2023-05-13T04:37:55.243Z,17.65
2023-05-13T04:40:21.638Z,17.65
2023-05-13T04:42:47.923Z,17.65
2023-05-13T04:45:14.024Z,17.64
2023-05-13T04:47:40.231Z,17.64
2023-05-13T04:50:06.351Z,17.64
2023-05-13T04:52:32.800Z,17.64
2023-05-13T04:54:58.917Z,17.63
2023-05-13T04:57:25.028Z,17.62
2023-05-13T04:59:51.119Z,17.63
2023-05-13T05:02:17.222Z,17.63
2023-05-13T05:04:43.312Z,17.63
2023-05-13T05:07:09.411Z,17.62
2023-05-13T05:09:35.527Z,17.62
2023-05-13T05:12:01.615Z,17.61
2023-05-13T05:14:27.720Z,17.60
2023-05-13T05:16:53.881Z,17.62
2023-05-13T05:19:20.054Z,17.61
2023-05-13T05:21:46.171Z,17.60
2023-05-13T05:24:12.295Z,17.60
2023-05-13T05:26:38.392Z,17.59
2023-05-13T05:29:04.505Z,17.60
2023-05-13T05:31:30.691Z,17.59
2023-05-13T05:33:56.811Z,17.59
2023-05-13T05:36:22.913Z,17.59
2023-05-13T05:38:49.025Z,17.59
2023-05-13T05:41:15.133Z,17.57
2023-05-13T05:43:41.233Z,17.58
2023-05-13T05:46:07.462Z,17.58
2023-05-13T05:48:34.715Z,17.57
2023-05-13T05:51:01.082Z,17.57
2023-05-13T05:53:27.199Z,17.57
2023-05-13T05:55:53.356Z,17.56
2023-05-13T05:58:19.474Z,17.56
2023-05-13T06:00:45.640Z,17.57
2023-05-13T06:03:11.883Z,17.57
2023-05-13T06:05:38.027Z,17.57
2023-05-13T06:08:04.143Z,17.57
2023-05-13T06:10:30.237Z,17.57
2023-05-13T06:12:56.326Z,17.56
2023-05-13T06:15:22.456Z,17.57
2023-05-13T06:17:48.636Z,17.55
2023-05-13T06:20:14.839Z,17.56
2023-05-13T06:22:40.962Z,17.55
2023-05-13T06:25:07.065Z,17.55
2023-05-13T06:27:33.183Z,17.54
2023-05-13T06:29:59.280Z,17.54
2023-05-13T06:32:25.409Z,17.55
2023-05-13T06:34:52.514Z,17.54
2023-05-13T06:37:20.049Z,17.54
2023-05-13T06:39:46.145Z,17.54
2023-05-13T06:42:14.216Z,17.54
2023-05-13T06:44:40.546Z,17.53
2023-05-13T06:47:06.662Z,17.52
2023-05-13T06:49:32.825Z,17.53
2023-05-13T06:51:58.921Z,17.53
2023-05-13T06:54:25.009Z,17.53
2023-05-13T06:56:51.101Z,17.53
2023-05-13T06:59:17.210Z,17.53
2023-05-13T07:01:43.316Z,17.53
2023-05-13T07:04:09.535Z,17.53
2023-05-13T07:06:35.817Z,17.53
2023-05-13T07:09:03.883Z,17.51
2023-05-13T07:11:33.429Z,17.52
2023-05-13T07:13:59.602Z,17.52
2023-05-13T07:16:25.691Z,17.51
2023-05-13T07:18:51.822Z,17.52
2023-05-13T07:21:17.977Z,17.51
2023-05-13T07:23:44.742Z,17.51
2023-05-13T07:26:10.953Z,17.52
2023-05-13T07:28:37.108Z,17.51
2023-05-13T07:31:03.221Z,17.52
2023-05-13T07:33:29.333Z,17.51
2023-05-13T07:35:55.549Z,17.51
2023-05-13T07:38:21.643Z,17.51
2023-05-13T07:40:47.740Z,17.51
2023-05-13T07:43:13.873Z,17.51
2023-05-13T07:45:39.971Z,17.51
2023-05-13T07:48:06.086Z,17.51
2023-05-13T07:50:32.195Z,17.51
2023-05-13T07:52:58.282Z,17.52
2023-05-13T07:55:26.256Z,17.51
2023-05-13T07:57:52.370Z,17.51
2023-05-13T08:00:18.475Z,17.51
2023-05-13T08:02:44.626Z,17.52
2023-05-13T08:05:10.890Z,17.52
2023-05-13T08:07:37.022Z,17.51
2023-05-13T08:10:03.121Z,17.51
2023-05-13T08:12:29.249Z,17.52
2023-05-13T08:14:55.359Z,17.51
2023-05-13T08:17:21.493Z,17.51
2023-05-13T08:19:47.677Z,17.52
2023-05-13T08:22:13.890Z,17.52
2023-05-13T08:24:39.990Z,17.51
2023-05-13T08:27:06.088Z,17.52
2023-05-13T08:29:32.199Z,17.52
2023-05-13T08:31:58.322Z,17.52
2023-05-13T08:34:24.518Z,17.54
2023-05-13T08:36:50.644Z,17.52
2023-05-13T08:39:16.781Z,17.52
2023-05-13T08:41:42.909Z,17.53
2023-05-13T08:44:09.000Z,17.53
2023-05-13T08:46:35.211Z,17.52
2023-05-13T08:49:01.358Z,17.53
2023-05-13T08:51:27.498Z,17.53
2023-05-13T08:53:53.604Z,17.53
2023-05-13T08:56:19.776Z,17.53
2023-05-13T08:58:45.878Z,17.54
2023-05-13T09:01:11.996Z,17.54
2023-05-13T09:03:38.127Z,17.55
2023-05-13T09:06:04.206Z,17.54
2023-05-13T09:08:30.297Z,17.55
2023-05-13T09:10:56.503Z,17.55
2023-05-13T09:13:22.623Z,17.56
2023-05-13T09:15:48.774Z,17.56
2023-05-13T09:18:17.862Z,17.56
2023-05-13T09:20:44.921Z,17.57
2023-05-13T09:23:11.103Z,17.57
2023-05-13T09:25:37.243Z,17.58
2023-05-13T09:28:03.341Z,17.57
2023-05-13T09:30:29.475Z,17.58
2023-05-13T09:32:55.628Z,17.58
2023-05-13T09:35:21.930Z,17.59
2023-05-13T09:37:48.283Z,17.59
2023-05-13T09:40:14.419Z,17.60
2023-05-13T09:42:40.537Z,17.60
2023-05-13T09:45:06.645Z,17.60
2023-05-13T09:47:32.867Z,17.61
2023-05-13T09:49:59.003Z,17.61
2023-05-13T09:52:32.690Z,17.61
2023-05-13T09:54:59.162Z,17.62
2023-05-13T09:57:26.067Z,17.62
2023-05-13T09:59:52.181Z,17.63
2023-05-13T10:02:18.324Z,17.63
2023-05-13T10:04:44.457Z,17.63
2023-05-13T10:07:10.567Z,17.63
2023-05-13T10:09:36.777Z,17.63
2023-05-13T10:12:02.896Z,17.64
2023-05-13T10:14:29.010Z,17.65
2023-05-13T10:16:55.246Z,17.65
2023-05-13T10:19:23.467Z,17.65
2023-05-13T10:21:49.572Z,17.67
2023-05-13T10:24:15.763Z,17.66
2023-05-13T10:26:41.862Z,17.67
2023-05-13T10:29:07.982Z,17.67
2023-05-13T10:31:34.142Z,17.68
2023-05-13T10:34:00.265Z,17.68
2023-05-13T10:36:26.391Z,17.68
2023-05-13T10:38:52.548Z,17.68
2023-05-13T10:41:18.654Z,17.68
2023-05-13T10:43:44.753Z,17.69
2023-05-13T10:46:10.910Z,17.70
2023-05-13T10:48:37.081Z,17.69
2023-05-13T10:51:03.186Z,17.70
2023-05-13T10:53:29.301Z,17.71
2023-05-13T10:55:55.421Z,17.71
2023-05-13T10:58:21.545Z,17.73
2023-05-13T11:00:47.663Z,17.72
2023-05-13T11:03:13.899Z,17.73
2023-05-13T11:05:40.089Z,17.74
2023-05-13T11:08:06.207Z,17.74
2023-05-13T11:10:32.293Z,17.74
2023-05-13T11:12:58.394Z,17.76
2023-05-13T11:15:24.586Z,17.77
2023-05-13T11:17:50.692Z,17.77
2023-05-13T11:20:23.058Z,17.78
2023-05-13T11:22:49.352Z,17.78
2023-05-13T11:25:15.444Z,17.79
2023-05-13T11:27:41.550Z,17.78
2023-05-13T11:30:07.785Z,17.79
2023-05-13T11:32:33.955Z,17.81
2023-05-13T11:35:00.059Z,17.81
2023-05-13T11:37:26.219Z,17.81
2023-05-13T11:39:52.312Z,17.81
2023-05-13T11:42:18.428Z,17.80
2023-05-13T11:44:44.561Z,17.81
2023-05-13T11:47:10.701Z,17.82
2023-05-13T11:49:36.827Z,17.82
2023-05-13T11:52:03.020Z,17.84
2023-05-13T11:54:29.119Z,17.83
2023-05-13T11:56:55.208Z,17.85
2023-05-13T11:59:21.340Z,17.83
2023-05-13T12:01:47.450Z,17.85
2023-05-13T12:04:13.545Z,17.84
2023-05-13T12:06:39.653Z,17.86
2023-05-13T12:09:05.776Z,17.85
2023-05-13T12:11:31.903Z,17.86
2023-05-13T12:13:58.073Z,17.86
2023-05-13T12:16:24.271Z,17.86
2023-05-13T12:18:50.477Z,17.87
2023-05-13T12:21:17.136Z,17.87
2023-05-13T12:23:43.279Z,17.88
2023-05-13T12:26:09.444Z,17.88
2023-05-13T12:28:35.541Z,17.88
2023-05-13T12:31:01.708Z,17.90
2023-05-13T12:33:27.838Z,17.90
2023-05-13T12:35:53.998Z,17.91
2023-05-13T12:38:20.130Z,17.91
2023-05-13T12:40:46.299Z,17.91
2023-05-13T12:43:12.424Z,17.92
2023-05-13T12:45:41.201Z,17.92
2023-05-13T12:48:08.775Z,17.92
2023-05-13T12:50:34.918Z,17.93
2023-05-13T12:53:01.019Z,17.93
2023-05-13T12:55:27.134Z,17.93
2023-05-13T12:57:53.354Z,17.93
2023-05-13T13:00:19.436Z,17.94
2023-05-13T13:02:45.638Z,17.94
2023-05-13T13:05:11.822Z,17.95
2023-05-13T13:07:37.936Z,17.94
2023-05-13T13:10:04.066Z,17.94
2023-05-13T13:12:30.192Z,17.96
2023-05-13T13:14:56.279Z,17.95
2023-05-13T13:17:22.460Z,17.96
2023-05-13T13:19:48.810Z,17.97
2023-05-13T13:22:14.911Z,17.98
2023-05-13T13:24:41.016Z,17.99
2023-05-13T13:27:07.145Z,17.98
2023-05-13T13:29:33.243Z,17.99
2023-05-13T13:31:59.372Z,17.99
2023-05-13T13:34:25.572Z,18.01
2023-05-13T13:36:51.674Z,18.01
2023-05-13T13:39:17.782Z,18.01
2023-05-13T13:41:43.924Z,18.01
2023-05-13T13:44:10.019Z,18.02
2023-05-13T13:46:36.195Z,18.02
2023-05-13T13:49:10.187Z,18.01
2023-05-13T13:51:42.786Z,18.03
2023-05-13T13:54:08.913Z,18.03
2023-05-13T13:56:35.035Z,18.04
2023-05-13T13:59:01.129Z,18.05
2023-05-13T14:01:27.311Z,18.05
2023-05-13T14:03:53.507Z,18.05
2023-05-13T14:06:19.713Z,18.04
2023-05-13T14:08:45.817Z,18.05
2023-05-13T14:11:11.928Z,18.06
2023-05-13T14:13:38.020Z,18.06
2023-05-13T14:16:04.161Z,18.06
2023-05-13T14:18:30.302Z,18.07
2023-05-13T14:20:56.488Z,18.06
2023-05-13T14:23:22.607Z,18.06
2023-05-13T14:25:48.710Z,18.06
2023-05-13T14:28:14.810Z,18.06
2023-05-13T14:30:40.920Z,18.07
2023-05-13T14:33:07.073Z,18.07
2023-05-13T14:35:33.233Z,18.06
2023-05-13T14:37:59.419Z,18.09
2023-05-13T14:40:25.535Z,18.10
2023-05-13T14:42:51.655Z,18.10
2023-05-13T14:45:18.821Z,18.10
2023-05-13T14:47:45.128Z,18.10
2023-05-13T14:50:11.282Z,18.11
2023-05-13T14:52:37.413Z,18.11
2023-05-13T14:55:03.510Z,18.10
2023-05-13T14:57:29.622Z,18.13
2023-05-13T14:59:56.442Z,18.12
2023-05-13T15:02:23.789Z,18.13
2023-05-13T15:04:49.977Z,18.14
2023-05-13T15:07:16.247Z,18.14
2023-05-13T15:09:42.355Z,18.15
2023-05-13T15:12:08.441Z,18.14
2023-05-13T15:14:34.571Z,18.15
2023-05-13T15:17:00.732Z,18.15
2023-05-13T15:19:26.891Z,18.15
2023-05-13T15:21:53.396Z,18.15
2023-05-13T15:24:19.501Z,18.14
2023-05-13T15:26:45.603Z,18.15
2023-05-13T15:29:11.729Z,18.15
2023-05-13T15:31:37.820Z,18.15
2023-05-13T15:34:03.914Z,18.16
2023-05-13T15:36:30.029Z,18.16
2023-05-13T15:38:56.173Z,18.16
2023-05-13T15:41:22.272Z,18.16
2023-05-13T15:43:48.395Z,18.17
2023-05-13T15:46:14.599Z,18.17
2023-05-13T15:48:40.748Z,18.18
2023-05-13T15:51:06.870Z,18.17
2023-05-13T15:53:32.967Z,18.18
2023-05-13T15:55:59.075Z,18.17
2023-05-13T15:58:25.187Z,18.18
2023-05-13T16:00:51.294Z,18.18
2023-05-13T16:03:17.387Z,18.17
2023-05-13T16:05:43.522Z,18.18
2023-05-13T16:08:09.645Z,18.19
2023-05-13T16:10:35.810Z,18.19
2023-05-13T16:13:01.996Z,18.20
2023-05-13T16:15:28.082Z,18.20
2023-05-13T16:17:54.204Z,18.19
2023-05-13T16:20:20.497Z,18.19
2023-05-13T16:22:46.737Z,18.19
2023-05-13T16:25:12.857Z,18.18
2023-05-13T16:27:39.383Z,18.20
2023-05-13T16:30:05.479Z,18.19
2023-05-13T16:32:31.625Z,18.20
2023-05-13T16:34:57.767Z,18.20
2023-05-13T16:37:23.872Z,18.20
2023-05-13T16:39:49.995Z,18.20
2023-05-13T16:42:16.186Z,18.20
2023-05-13T16:44:42.280Z,18.20
2023-05-13T16:47:08.403Z,18.21
2023-05-13T16:49:34.554Z,18.21
2023-05-13T16:52:00.659Z,18.21
2023-05-13T16:54:26.779Z,18.21
2023-05-13T16:56:52.909Z,18.21
2023-05-13T16:59:19.001Z,18.22
2023-05-13T17:01:45.185Z,18.22
2023-05-13T17:04:11.324Z,18.22
2023-05-13T17:06:37.415Z,18.22
2023-05-13T17:09:03.498Z,18.22
2023-05-13T17:11:29.669Z,18.22
2023-05-13T17:13:55.785Z,18.21
2023-05-13T17:16:21.948Z,18.22
2023-05-13T17:18:48.107Z,18.24
2023-05-13T17:21:14.262Z,18.22
2023-05-13T17:23:40.383Z,18.23
2023-05-13T17:26:06.529Z,18.24
2023-05-13T17:28:32.627Z,18.24
2023-05-13T17:30:58.801Z,18.24
2023-05-13T17:33:24.947Z,18.24
2023-05-13T17:35:51.046Z,18.24
2023-05-13T17:38:17.149Z,18.24
2023-05-13T17:40:43.271Z,18.25
2023-05-13T17:43:09.361Z,18.24
2023-05-13T17:45:35.522Z,18.25
2023-05-13T17:48:01.877Z,18.24
2023-05-13T17:50:28.065Z,18.24
2023-05-13T17:52:54.148Z,18.25
2023-05-13T17:55:20.265Z,18.25
2023-05-13T17:57:46.376Z,18.25
2023-05-13T18:00:12.496Z,18.25
2023-05-13T18:02:38.671Z,18.24
2023-05-13T18:05:04.899Z,18.24
2023-05-13T18:07:31.038Z,18.25
2023-05-13T18:09:57.171Z,18.25
2023-05-13T18:12:23.284Z,18.26
2023-05-13T18:14:49.377Z,18.26
2023-05-13T18:17:15.623Z,18.25
2023-05-13T18:19:41.857Z,18.26
2023-05-13T18:22:07.981Z,18.26
2023-05-13T18:24:36.142Z,18.26
2023-05-13T18:27:02.239Z,18.25
2023-05-13T18:29:28.341Z,18.26
2023-05-13T18:31:54.686Z,18.27
2023-05-13T18:34:20.876Z,18.27
2023-05-13T18:36:47.036Z,18.27
2023-05-13T18:39:13.158Z,18.26
2023-05-13T18:41:39.252Z,18.26
2023-05-13T18:44:05.348Z,18.26
2023-05-13T18:46:31.561Z,18.26
2023-05-13T18:48:57.704Z,18.27
2023-05-13T18:51:23.844Z,18.27
2023-05-13T18:53:50.004Z,18.27
2023-05-13T18:56:16.199Z,18.27
2023-05-13T18:58:42.299Z,18.27
2023-05-13T19:01:08.516Z,18.27
2023-05-13T19:03:34.759Z,18.26
2023-05-13T19:06:00.873Z,18.27
2023-05-13T19:08:27.022Z,18.26
2023-05-13T19:10:53.110Z,18.27
2023-05-13T19:13:19.198Z,18.26
2023-05-13T19:15:45.294Z,18.26
2023-05-13T19:18:11.481Z,18.26
2023-05-13T19:20:37.711Z,18.28
2023-05-13T19:23:03.914Z,18.27
2023-05-13T19:25:30.033Z,18.27
2023-05-13T19:27:56.108Z,18.27
2023-05-13T19:30:22.462Z,18.27
2023-05-13T19:32:48.848Z,18.27
2023-05-13T19:35:15.003Z,18.27
2023-05-13T19:37:41.157Z,18.27
2023-05-13T19:40:07.262Z,18.27
2023-05-13T19:42:33.381Z,18.28
2023-05-13T19:44:59.517Z,18.27
2023-05-13T19:47:25.638Z,18.27
2023-05-13T19:49:51.777Z,18.27
2023-05-13T19:52:17.946Z,18.28
2023-05-13T19:54:44.051Z,18.27
2023-05-13T19:57:10.162Z,18.27
2023-05-13T19:59:36.283Z,18.28
2023-05-13T20:02:02.430Z,18.27
2023-05-13T20:04:28.544Z,18.28
2023-05-13T20:06:54.664Z,18.27
2023-05-13T20:09:20.760Z,18.27
2023-05-13T20:11:46.879Z,18.26
2023-05-13T20:14:13.018Z,18.28
2023-05-13T20:16:39.172Z,18.27
2023-05-13T20:19:05.355Z,18.27
2023-05-13T20:21:31.616Z,18.28
2023-05-13T20:23:57.707Z,18.27
2023-05-13T20:26:23.800Z,18.27
2023-05-13T20:28:49.911Z,18.27
2023-05-13T20:31:16.092Z,18.27
2023-05-13T20:33:42.228Z,18.27
2023-05-13T20:36:08.321Z,18.27
2023-05-13T20:38:34.427Z,18.28
2023-05-13T20:41:00.517Z,18.26
2023-05-13T20:43:26.625Z,18.28
2023-05-13T20:45:52.895Z,18.27
2023-05-13T20:48:19.029Z,18.28
2023-05-13T20:50:45.201Z,18.28
2023-05-13T20:53:11.311Z,18.28
2023-05-13T20:55:37.438Z,18.28
2023-05-13T20:58:03.558Z,18.27
2023-05-13T21:00:29.655Z,18.28
2023-05-13T21:02:55.789Z,18.27
2023-05-13T21:05:22.367Z,18.27
2023-05-13T21:07:48.693Z,18.27
2023-05-13T21:10:14.793Z,18.26
2023-05-13T21:12:40.916Z,18.27
2023-05-13T21:15:07.009Z,18.27
2023-05-13T21:17:33.234Z,18.25
2023-05-13T21:19:59.422Z,18.25
2023-05-13T21:22:25.537Z,18.26
2023-05-13T21:24:51.637Z,18.26
2023-05-13T21:27:17.794Z,18.25
2023-05-13T21:29:43.922Z,18.25
2023-05-13T21:32:10.020Z,18.26
2023-05-13T21:34:36.150Z,18.24
2023-05-13T21:37:02.245Z,18.24
2023-05-13T21:39:28.375Z,18.24
2023-05-13T21:41:54.544Z,18.24
2023-05-13T21:44:20.674Z,18.25
2023-05-13T21:46:46.775Z,18.25
2023-05-13T21:49:12.988Z,18.24
2023-05-13T21:51:39.203Z,18.23
2023-05-13T21:54:05.304Z,18.24
2023-05-13T21:56:31.532Z,18.24
2023-05-13T21:58:57.639Z,18.23
2023-05-13T22:01:23.764Z,18.24
2023-05-13T22:03:49.926Z,18.23
2023-05-13T22:06:16.039Z,18.24
2023-05-13T22:11:17.233Z,18.23
2023-05-13T22:13:43.338Z,18.23
2023-05-13T22:16:09.522Z,18.23
2023-05-13T22:18:35.967Z,18.22
2023-05-13T22:21:02.179Z,18.22
2023-05-13T22:23:28.277Z,18.22
2023-05-13T22:25:54.401Z,18.22
2023-05-13T22:28:20.509Z,18.21
2023-05-13T22:30:46.604Z,18.21
2023-05-13T22:33:12.793Z,18.20
2023-05-13T22:35:38.943Z,18.21
2023-05-13T22:38:05.050Z,18.21
2023-05-13T22:40:31.192Z,18.20
2023-05-13T22:42:57.291Z,18.20
2023-05-13T22:45:23.411Z,18.20
2023-05-13T22:47:49.735Z,18.19
2023-05-13T22:50:15.863Z,18.20
2023-05-13T22:52:41.942Z,18.19
2023-05-13T22:55:08.052Z,18.18
2023-05-13T22:57:34.159Z,18.17
2023-05-13T23:00:00.248Z,18.18
2023-05-13T23:02:26.430Z,18.17
2023-05-13T23:04:52.564Z,18.17
2023-05-13T23:07:18.670Z,18.18
2023-05-13T23:09:44.816Z,18.18
2023-05-13T23:12:10.913Z,18.16
2023-05-13T23:14:37.017Z,18.16
2023-05-13T23:17:03.127Z,18.16
2023-05-13T23:19:29.217Z,18.15
2023-05-13T23:21:55.327Z,18.15
2023-05-13T23:24:21.454Z,18.15
2023-05-13T23:26:48.180Z,18.14
2023-05-13T23:29:14.350Z,18.15
2023-05-13T23:31:40.736Z,18.14
2023-05-13T23:34:06.870Z,18.13
2023-05-13T23:36:32.974Z,18.14
2023-05-13T23:38:59.105Z,18.14
2023-05-13T23:41:25.221Z,18.15
2023-05-13T23:43:51.324Z,18.13
2023-05-13T23:46:17.492Z,18.13
2023-05-13T23:48:43.762Z,18.13
2023-05-13T23:51:09.962Z,18.12
2023-05-13T23:53:36.076Z,18.13
2023-05-13T23:56:02.170Z,18.10
2023-05-13T23:58:28.314Z,18.11
